Time;durP1;ratioP1;P1;durP2;ratioP2;P2;SDS_P1;SDS_P2;PMS_P1;PMS_P2;Temp;Humidity;BMP_temperature;BMP_pressure;BME280_temperature;BME280_humidity;BME280_pressure;Samples;Min_cycle;Max_cycle;Signal;HPM_P1;HPM_P2
2022/09/18 00:01:40;;;;;;;9.90;2.42;;;;;;;11.05;100.00;101200.75;4966218;28;20044;-81
2022/09/18 00:04:14;;;;;;;12.07;2.15;;;;;;;11.07;100.00;101205.16;4978924;28;20043;-78
2022/09/18 00:06:44;;;;;;;7.72;1.55;;;;;;;11.09;100.00;101208.69;5022514;28;20145;-80
2022/09/18 00:09:14;;;;;;;11.57;1.80;;;;;;;11.10;100.00;101207.81;4942293;28;20043;-80
2022/09/18 00:11:45;;;;;;;11.73;2.05;;;;;;;11.10;100.00;101207.81;4948812;28;20042;-83
2022/09/18 00:14:18;;;;;;;;;;;;;;;11.11;100.00;101209.59;4946676;28;20141;-78
2022/09/18 00:16:47;;;;;;;13.40;1.52;;;;;;;11.15;100.00;101210.47;4947332;28;19929;-80
2022/09/18 00:19:16;;;;;;;5.53;1.42;;;;;;;11.19;100.00;101207.00;5013331;28;20258;-80
2022/09/18 00:21:47;;;;;;;10.38;1.55;;;;;;;11.23;100.00;101213.19;4948212;28;20035;-81
2022/09/18 00:24:16;;;;;;;5.95;1.42;;;;;;;11.26;100.00;101207.91;4963435;28;20299;-79
2022/09/18 00:26:46;;;;;;;7.18;1.50;;;;;;;11.28;100.00;101212.31;4924334;28;20066;-79
2022/09/18 00:29:16;;;;;;;10.75;2.20;;;;;;;11.29;100.00;101207.94;4945712;28;20169;-79
2022/09/18 00:31:45;;;;;;;5.80;1.48;;;;;;;11.28;100.00;101212.31;4930890;28;20035;-79
2022/09/18 00:34:14;;;;;;;8.63;1.40;;;;;;;11.26;100.00;101208.78;4942468;28;20236;-79
2022/09/18 00:36:43;;;;;;;5.70;1.88;;;;;;;11.25;100.00;101217.59;4961381;28;20047;-79
2022/09/18 00:39:12;;;;;;;12.00;1.63;;;;;;;11.23;100.00;101213.19;4993772;28;20068;-79
2022/09/18 00:41:43;;;;;;;9.88;1.90;;;;;;;11.23;100.00;101210.56;4918107;28;20042;-81
2022/09/18 00:44:36;;;;;;;5.80;1.90;;;;;;;11.21;100.00;101218.44;4935062;28;20153;-81
2022/09/18 00:47:11;;;;;;;6.53;1.63;;;;;;;11.20;100.00;101216.66;4958832;28;20165;-80
2022/09/18 00:50:08;;;;;;;8.50;1.95;;;;;;;11.16;100.00;101206.97;4945668;28;20062;-79
2022/09/18 00:52:53;;;;;;;6.88;2.00;;;;;;;11.13;100.00;101209.59;4946330;28;20054;-79
2022/09/18 00:55:38;;;;;;;9.63;1.38;;;;;;;11.09;100.00;101208.69;4950545;28;20194;-80
2022/09/18 00:58:08;;;;;;;6.43;1.83;;;;;;;11.05;100.00;101203.38;4924191;28;20038;-80
2022/09/18 01:00:37;;;;;;;4.47;1.25;;;;;;;11.02;100.00;101214.81;4968087;28;20051;-79
2022/09/18 01:03:05;;;;;;;5.60;1.60;;;;;;;11.01;100.00;101220.06;4945945;28;20440;-79
2022/09/18 01:05:47;;;;;;;12.65;1.65;;;;;;;11.00;100.00;101227.09;4950976;28;20046;-79
2022/09/18 01:08:36;;;;;;;9.35;2.55;;;;;;;11.00;100.00;101242.03;4966738;28;20143;-80
2022/09/18 01:11:23;;;;;;;11.48;1.85;;;;;;;10.91;100.00;101222.63;4949087;28;20047;-80
2022/09/18 01:14:22;;;;;;;6.68;2.00;;;;;;;10.77;100.00;101234.81;4922697;28;20519;-81
2022/09/18 01:17:04;;;;;;;7.25;1.88;;;;;;;10.65;100.00;101232.94;4963429;28;20031;-80
2022/09/18 01:20:12;;;;;;;7.85;1.73;;;;;;;10.58;100.00;101222.34;4965489;28;20042;-79
2022/09/18 01:23:02;;;;;;;7.55;2.03;;;;;;;10.47;100.00;101217.88;4915755;28;20501;-81
2022/09/18 01:26:16;;;;;;;5.13;1.50;;;;;;;10.39;100.00;101214.25;4967838;28;20043;-79
2022/09/18 01:29:21;;;;;;;10.35;1.58;;;;;;;10.29;100.00;101212.38;4906727;28;20405;-80
2022/09/18 01:32:22;;;;;;;7.13;1.75;;;;;;;10.25;100.00;101207.94;5004892;28;20511;-80
2022/09/18 01:35:00;;;;;;;4.22;1.27;;;;;;;10.18;100.00;101204.34;4919240;28;20058;-80
2022/09/18 01:37:44;;;;;;;5.88;1.35;;;;;;;10.12;100.00;101207.81;5044316;28;20118;-79
2022/09/18 01:40:45;;;;;;;5.07;1.30;;;;;;;10.08;100.00;101202.50;4961614;28;20685;-80
2022/09/18 01:43:16;;;;;;;6.65;1.58;;;;;;;10.05;100.00;101203.34;4950781;28;20048;-80
2022/09/18 01:45:48;;;;;;;4.63;1.38;;;;;;;10.02;100.00;101202.41;4978046;28;20035;-80
2022/09/18 01:48:46;;;;;;;8.95;1.40;;;;;;;9.99;100.00;101200.63;4949970;28;20047;-79
2022/09/18 01:51:21;;;;;;;7.65;1.98;;;;;;;9.97;100.00;101194.47;4950081;28;20225;-79
2022/09/18 01:54:02;;;;;;;4.85;1.55;;;;;;;9.93;100.00;101204.09;4948092;28;20043;-80
2022/09/18 01:56:39;;;;;;;8.32;1.35;;;;;;;9.92;100.00;101199.69;4944120;28;20043;-80
2022/09/18 01:59:15;;;;;;;4.82;1.52;;;;;;;9.91;100.00;101204.94;4935079;28;21833;-79
2022/09/18 02:01:56;;;;;;;10.23;1.52;;;;;;;9.90;100.00;101200.53;4961095;28;20043;-79
2022/09/18 02:04:31;;;;;;;7.93;1.40;;;;;;;9.91;100.00;101202.31;4951944;28;20500;-80
2022/09/18 02:07:13;;;;;;;9.38;1.70;;;;;;;9.89;100.00;101201.41;4943699;28;20069;-79
2022/09/18 02:09:42;;;;;;;6.32;1.48;;;;;;;9.88;100.00;101203.13;4933506;28;20039;-78
2022/09/18 02:12:17;;;;;;;6.75;1.60;;;;;;;9.88;100.00;101194.38;4912070;29;20115;-79
2022/09/18 02:14:54;;;;;;;5.50;1.65;;;;;;;9.88;100.00;101182.09;4944944;28;20043;-79
2022/09/18 02:17:45;;;;;;;7.60;2.17;;;;;;;9.89;100.00;101183.00;4959903;28;20027;-79
2022/09/18 02:20:26;;;;;;;7.32;1.70;;;;;;;9.90;100.00;101180.34;5013781;28;20043;-79
2022/09/18 02:23:01;;;;;;;;;;;;;;;9.90;100.00;101175.09;4931557;28;20077;-80
2022/09/18 02:25:36;;;;;;;7.07;1.42;;;;;;;9.93;100.00;101174.25;4948749;28;20403;-80
2022/09/18 02:28:10;;;;;;;11.05;2.22;;;;;;;9.94;100.00;101170.75;4992448;28;20066;-79
2022/09/18 02:30:43;;;;;;;9.70;1.83;;;;;;;9.95;100.00;101170.75;4936058;28;20507;-79
2022/09/18 02:33:34;;;;;;;7.70;1.58;;;;;;;9.97;100.00;101172.53;4919852;28;20145;-79
2022/09/18 02:36:14;;;;;;;6.97;1.30;;;;;;;9.99;100.00;101178.69;4960311;28;20172;-80
2022/09/18 02:39:15;;;;;;;7.97;1.77;;;;;;;10.00;100.00;101177.81;4953556;28;20051;-79
2022/09/18 02:42:02;;;;;;;10.57;1.50;;;;;;;10.01;100.00;101172.56;4942672;28;20508;-80
2022/09/18 02:45:02;;;;;;;8.15;2.53;;;;;;;10.04;100.00;101177.88;4932389;28;20058;-79
2022/09/18 02:48:09;;;;;;;7.95;2.03;;;;;;;10.08;100.00;101173.53;4918683;28;20047;-80
2022/09/18 02:51:09;;;;;;;7.57;1.52;;;;;;;10.09;100.00;101175.28;4946083;28;20039;-80
2022/09/18 02:53:59;;;;;;;4.75;1.42;;;;;;;10.08;100.00;101160.38;4948652;28;20255;-79
2022/09/18 02:56:43;;;;;;;11.88;1.90;;;;;;;10.09;100.00;101165.66;4965817;28;20047;-80
2022/09/18 02:59:18;;;;;;;9.02;1.83;;;;;;;10.09;100.00;101163.03;4961056;28;20058;-78
2022/09/18 03:01:54;;;;;;;12.57;1.50;;;;;;;10.11;100.00;101171.81;4945615;28;20062;-80
2022/09/18 03:04:26;;;;;;;6.50;1.58;;;;;;;10.14;100.00;101168.31;4917487;28;20065;-79
2022/09/18 03:07:01;;;;;;;6.78;1.40;;;;;;;10.15;100.00;101177.97;4929725;28;20251;-81
2022/09/18 03:09:33;;;;;;;5.75;1.55;;;;;;;10.17;100.00;101172.72;4976267;28;20051;-79
2022/09/18 03:12:02;;;;;;;11.48;1.55;;;;;;;10.18;100.00;101170.13;4995894;28;20359;-79
2022/09/18 03:14:34;;;;;;;9.95;2.28;;;;;;;10.19;100.00;101163.09;4939329;28;20062;-79
2022/09/18 03:17:03;;;;;;;8.65;1.77;;;;;;;10.18;100.00;101169.25;5024838;28;20035;-79
2022/09/18 03:19:32;;;;;;;9.03;1.83;;;;;;;10.14;100.00;101158.66;4922858;28;20058;-78
2022/09/18 03:22:03;;;;;;;6.60;1.65;;;;;;;10.12;100.00;101159.53;5027011;28;20947;-79
2022/09/18 03:24:36;;;;;;;12.43;2.47;;;;;;;10.10;100.00;101148.97;4948525;28;20047;-80
2022/09/18 03:27:05;;;;;;;10.55;1.50;;;;;;;10.08;100.00;101158.63;4946579;28;20393;-78
2022/09/18 03:29:37;;;;;;;9.60;1.77;;;;;;;10.06;100.00;101141.91;4963503;28;20058;-79
2022/09/18 03:32:05;;;;;;;6.50;1.63;;;;;;;10.04;100.00;101143.66;4944878;28;20766;-80
2022/09/18 03:34:42;;;;;;;5.63;1.33;;;;;;;10.03;100.00;101144.50;4890356;28;20047;-79
2022/09/18 03:37:10;;;;;;;13.85;1.92;;;;;;;10.03;100.00;101143.63;4946409;28;20046;-79
2022/09/18 03:39:39;;;;;;;13.05;2.40;;;;;;;10.02;100.00;101147.13;4965222;28;20049;-79
2022/09/18 03:42:11;;;;;;;6.78;2.10;;;;;;;10.01;100.00;101143.63;4991766;28;20070;-78
2022/09/18 03:44:42;;;;;;;8.65;1.67;;;;;;;10.02;100.00;101147.13;4923435;29;20059;-81
2022/09/18 03:47:19;;;;;;;10.25;2.03;;;;;;;10.03;100.00;101149.78;4882775;28;20047;-80
2022/09/18 03:49:48;;;;;;;10.43;2.10;;;;;;;10.06;100.00;101144.56;4956698;28;20055;-80
2022/09/18 03:52:18;;;;;;;6.60;1.60;;;;;;;10.08;100.00;101139.31;4894354;29;20040;-79
2022/09/18 03:54:53;;;;;;;10.65;1.85;;;;;;;10.08;100.00;101137.56;4920678;29;20558;-79
2022/09/18 03:57:40;;;;;;;11.00;1.63;;;;;;;10.09;100.00;101144.59;4910390;29;20058;-80
2022/09/18 04:00:34;;;;;;;7.28;1.40;;;;;;;10.10;100.00;101143.72;4907000;29;20066;-79
2022/09/18 04:03:11;;;;;;;10.20;2.08;;;;;;;10.11;100.00;101132.31;4913847;28;20072;-79
2022/09/18 04:06:01;;;;;;;6.50;1.60;;;;;;;10.11;100.00;101139.31;4867083;28;20065;-80
2022/09/18 04:08:33;;;;;;;9.55;1.50;;;;;;;10.11;100.00;101137.59;4953601;28;20048;-79
2022/09/18 04:11:10;;;;;;;5.93;2.10;;;;;;;10.11;100.00;101142.84;4918190;28;20050;-80
2022/09/18 04:13:38;;;;;;;8.02;2.05;;;;;;;10.12;100.00;101144.59;4908836;28;20055;-80
2022/09/18 04:16:09;;;;;;;8.25;2.22;;;;;;;10.12;100.00;101139.34;4950488;28;20318;-79
2022/09/18 04:18:38;;;;;;;4.28;1.65;;;;;;;10.15;100.00;101135.84;4947798;28;20049;-80
2022/09/18 04:21:09;;;;;;;;;;;;;;;10.15;100.00;101133.22;4944333;28;20049;-78
2022/09/18 04:23:37;;;;;;;8.85;1.92;;;;;;;10.14;100.00;101142.88;4975687;28;19922;-80
2022/09/18 04:26:09;;;;;;;4.18;1.65;;;;;;;10.17;100.00;101154.28;4995441;28;20598;-79
2022/09/18 04:28:44;;;;;;;13.27;2.38;;;;;;;10.18;100.00;101141.16;4969728;28;20036;-80
2022/09/18 04:31:13;;;;;;;5.97;1.63;;;;;;;10.19;100.00;101149.91;4951461;28;20030;-79
2022/09/18 04:33:42;;;;;;;7.78;2.08;;;;;;;10.20;100.00;101141.16;4947016;28;20041;-80
2022/09/18 04:36:10;;;;;;;9.23;2.90;;;;;;;10.21;100.00;101142.91;4903701;28;20431;-79
2022/09/18 04:38:40;;;;;;;7.30;1.80;;;;;;;10.22;100.00;101145.56;4931563;28;20035;-80
2022/09/18 04:41:09;;;;;;;5.80;1.15;;;;;;;10.24;100.00;101140.31;5016727;28;20172;-80
2022/09/18 04:43:38;;;;;;;4.88;0.95;;;;;;;10.24;100.00;101135.06;4953329;28;20484;-79
2022/09/18 04:46:08;;;;;;;4.93;1.15;;;;;;;10.22;100.00;101135.03;4933062;28;20164;-78
2022/09/18 04:48:37;;;;;;;4.57;1.08;;;;;;;10.22;100.00;101142.06;4936698;28;20039;-79
2022/09/18 04:51:08;;;;;;;5.28;0.93;;;;;;;10.22;100.00;101142.06;4907477;28;20157;-78
2022/09/18 04:53:47;;;;;;;2.42;1.10;;;;;;;10.19;100.00;101139.38;4951325;28;20039;-79
2022/09/18 04:56:16;;;;;;;2.08;0.93;;;;;;;10.18;100.00;101133.25;4951839;28;20054;-79
2022/09/18 04:58:49;;;;;;;2.63;1.38;;;;;;;10.15;100.00;101126.22;4963879;28;20070;-79
2022/09/18 05:01:18;;;;;;;2.42;0.88;;;;;;;10.14;100.00;101121.78;4947727;28;20216;-80
2022/09/18 05:03:46;;;;;;;2.03;0.85;;;;;;;10.13;100.00;101124.41;5007468;28;20400;-79
2022/09/18 05:06:24;;;;;;;1.65;0.60;;;;;;;10.11;100.00;101127.06;4953913;28;20039;-78
2022/09/18 05:08:54;;;;;;;3.95;0.95;;;;;;;10.09;100.00;101118.25;4946801;28;20038;-81
2022/09/18 05:11:25;;;;;;;4.72;1.00;;;;;;;10.10;100.00;101129.66;4959360;28;20039;-80
2022/09/18 05:13:56;;;;;;;3.17;0.73;;;;;;;10.09;100.00;101120.91;4962968;28;20042;-78
2022/09/18 05:16:28;;;;;;;4.20;1.08;;;;;;;10.10;100.00;101121.78;4931827;28;20047;-78
2022/09/18 05:19:22;;;;;;;6.13;1.20;;;;;;;10.11;100.00;101137.59;4906589;28;20035;-79
2022/09/18 05:21:58;;;;;;;2.55;0.80;;;;;;;10.12;100.00;101134.06;4946600;28;20055;-79
2022/09/18 05:24:26;;;;;;;3.97;0.80;;;;;;;10.14;100.00;101142.00;4947119;28;20043;-79
2022/09/18 05:26:55;;;;;;;6.78;1.40;;;;;;;10.15;100.00;101125.31;4930939;28;20047;-80
2022/09/18 05:29:23;;;;;;;6.15;1.27;;;;;;;10.20;100.00;101141.16;4952430;28;20518;-80
2022/09/18 05:32:01;;;;;;;4.93;1.10;;;;;;;10.24;100.00;101142.97;4964658;28;20051;-79
2022/09/18 05:34:29;;;;;;;9.50;1.60;;;;;;;10.27;100.00;101166.72;4951638;28;20066;-79
2022/09/18 05:36:58;;;;;;;6.00;1.20;;;;;;;10.30;100.00;101141.31;4901641;28;20055;-79
2022/09/18 05:39:27;;;;;;;2.85;1.45;;;;;;;10.32;100.00;101142.22;4951322;28;20031;-79
2022/09/18 05:41:59;;;;;;;7.50;1.85;;;;;;;10.31;100.00;101134.28;4993216;28;20047;-80
2022/09/18 05:44:29;;;;;;;5.65;1.50;;;;;;;10.29;100.00;101133.34;4941879;28;20058;-79
2022/09/18 05:46:57;;;;;;;10.25;1.70;;;;;;;10.26;100.00;101121.03;4992353;28;20051;-80
2022/09/18 05:49:27;;;;;;;6.88;2.30;;;;;;;10.27;100.00;101119.28;5032909;28;20395;-79
2022/09/18 05:51:57;;;;;;;11.95;1.90;;;;;;;10.26;100.00;101131.56;4963564;28;20058;-80
2022/09/18 05:54:29;;;;;;;8.73;2.30;;;;;;;10.26;100.00;101112.25;4965023;28;20047;-79
2022/09/18 05:56:58;;;;;;;5.43;1.25;;;;;;;10.24;100.00;101127.16;4974468;28;20276;-79
2022/09/18 05:59:27;;;;;;;4.78;1.55;;;;;;;10.23;100.00;101125.41;4933962;28;20045;-80
2022/09/18 06:01:56;;;;;;;6.32;1.13;;;;;;;10.21;100.00;101121.84;4933368;28;20496;-80
2022/09/18 06:04:43;;;;;;;4.80;1.42;;;;;;;10.18;100.00;101121.84;5021130;28;20046;-81
2022/09/18 06:07:15;;;;;;;6.30;1.60;;;;;;;10.15;100.00;101128.84;4934490;28;20145;-79
2022/09/18 06:09:43;;;;;;;4.18;1.40;;;;;;;10.14;100.00;101127.06;4974713;28;20049;-79
2022/09/18 06:12:12;;;;;;;8.15;1.38;;;;;;;10.16;100.00;101124.44;4960896;28;20157;-78
2022/09/18 06:14:41;;;;;;;11.27;2.22;;;;;;;10.19;100.00;101126.22;4931413;28;20046;-79
2022/09/18 06:17:10;;;;;;;8.55;1.58;;;;;;;10.21;100.00;101121.84;4932491;28;20038;-79
2022/09/18 06:19:39;;;;;;;14.48;1.60;;;;;;;10.23;100.00;101117.50;4976263;28;20050;-80
2022/09/18 06:22:09;;;;;;;6.28;1.52;;;;;;;10.24;100.00;101127.16;4913048;28;20047;-78
2022/09/18 06:24:38;;;;;;;8.02;1.60;;;;;;;10.27;100.00;101132.47;4951841;28;20038;-79
2022/09/18 06:27:09;;;;;;;8.18;1.95;;;;;;;10.30;100.00;101143.00;4947985;28;20412;-79
2022/09/18 06:29:39;;;;;;;11.02;1.90;;;;;;;10.32;100.00;101138.66;4945243;28;20388;-79
2022/09/18 06:32:15;;;;;;;8.10;2.28;;;;;;;10.34;100.00;101139.59;4949650;28;20459;-79
2022/09/18 06:34:43;;;;;;;12.20;2.00;;;;;;;10.33;100.00;101137.81;4949632;28;20048;-79
2022/09/18 06:37:14;;;;;;;8.40;2.65;;;;;;;10.31;100.00;101140.44;4948886;28;20046;-79
2022/09/18 06:39:43;;;;;;;9.25;2.08;;;;;;;10.31;100.00;101134.28;4916446;28;20061;-80
2022/09/18 06:42:34;;;;;;;9.23;1.90;;;;;;;10.30;100.00;101124.56;4968374;28;20050;-78
2022/09/18 06:45:11;;;;;;;9.20;2.25;;;;;;;10.28;100.00;101127.22;4940765;28;20035;-78
2022/09/18 06:47:40;;;;;;;8.85;1.77;;;;;;;10.30;100.00;101129.84;4936287;28;20035;-79
2022/09/18 06:50:12;;;;;;;16.42;2.22;;;;;;;10.28;100.00;101135.13;4933899;28;20047;-78
2022/09/18 06:52:44;;;;;;;10.45;2.28;;;;;;;10.30;100.00;101129.84;4943715;28;20054;-78
2022/09/18 06:55:15;;;;;;;11.27;1.80;;;;;;;10.27;100.00;101125.44;4946044;28;20039;-80
2022/09/18 06:57:54;;;;;;;8.57;2.15;;;;;;;10.28;100.00;101127.22;4952949;28;20046;-79
2022/09/18 07:00:23;;;;;;;10.38;1.65;;;;;;;10.32;100.00;101125.50;4960753;28;20027;-79
2022/09/18 07:02:57;;;;;;;;;;;;;;;10.32;100.00;101121.13;4976167;28;20415;-80
2022/09/18 07:05:51;;;;;;;8.50;1.73;;;;;;;10.33;100.00;101112.34;4951688;28;19933;-79
2022/09/18 07:08:33;;;;;;;7.07;1.50;;;;;;;10.33;100.00;101108.84;4940619;28;20050;-79
2022/09/18 07:11:15;;;;;;;8.80;2.00;;;;;;;10.31;100.00;101113.22;4919832;28;20255;-80
2022/09/18 07:13:48;;;;;;;7.40;1.50;;;;;;;10.29;100.00;101110.53;4963198;28;20504;-80
2022/09/18 07:16:19;;;;;;;5.47;1.45;;;;;;;10.27;100.00;101108.75;4925810;28;20395;-79
2022/09/18 07:18:48;;;;;;;9.60;1.55;;;;;;;10.27;100.00;101117.53;4939568;28;20039;-82
2022/09/18 07:21:19;;;;;;;8.48;1.52;;;;;;;10.28;100.00;101110.50;4928340;28;20052;-80
2022/09/18 07:23:48;;;;;;;9.20;1.55;;;;;;;10.27;100.00;101120.16;4958428;28;20035;-80
2022/09/18 07:26:18;;;;;;;7.72;1.80;;;;;;;10.29;100.00;101125.44;4921577;28;20058;-80
2022/09/18 07:28:48;;;;;;;9.48;1.90;;;;;;;10.30;100.00;101124.56;4978639;28;20039;-80
2022/09/18 07:31:21;;;;;;;7.82;1.90;;;;;;;10.32;100.00;101129.03;4946674;28;20035;-80
2022/09/18 07:33:52;;;;;;;7.45;1.92;;;;;;;10.35;100.00;101122.91;4946580;28;20054;-78
2022/09/18 07:36:22;;;;;;;7.85;1.52;;;;;;;10.36;100.00;101129.94;4979367;28;20530;-79
2022/09/18 07:38:52;;;;;;;8.10;1.98;;;;;;;10.34;100.00;101145.72;4943351;28;20059;-78
2022/09/18 07:41:23;;;;;;;9.77;1.55;;;;;;;10.35;100.00;101141.34;4918481;28;20046;-81
2022/09/18 07:43:53;;;;;;;8.88;1.33;;;;;;;10.35;100.00;101133.44;4933582;28;20734;-79
2022/09/18 07:46:22;;;;;;;11.75;1.63;;;;;;;10.36;100.00;101132.59;5003937;28;20049;-79
2022/09/18 07:48:54;;;;;;;8.05;1.55;;;;;;;10.39;100.00;101131.72;5024261;28;20038;-79
2022/09/18 07:51:26;;;;;;;9.52;1.48;;;;;;;10.41;100.00;101133.47;4933037;28;20035;-80
2022/09/18 07:53:59;;;;;;;7.47;1.30;;;;;;;10.42;100.00;101134.38;4926456;28;20043;-79
2022/09/18 07:56:49;;;;;;;;;;;;;;;10.43;100.00;101139.63;4922871;28;20270;-79
2022/09/18 07:59:21;;;;;;;7.35;2.05;;;;;;;10.44;100.00;101145.81;4947604;28;20367;-79
2022/09/18 08:01:57;;;;;;;10.38;2.35;;;;;;;10.43;100.00;101144.91;5014701;28;20161;-79
2022/09/18 08:04:27;;;;;;;7.35;1.70;;;;;;;10.42;100.00;101143.16;4971801;28;20039;-79
2022/09/18 08:07:08;;;;;;;4.88;1.55;;;;;;;10.43;100.00;101137.00;4975357;28;20039;-78
2022/09/18 08:10:13;;;;;;;6.90;1.42;;;;;;;10.48;100.00;101135.31;4983964;28;20511;-79
2022/09/18 08:12:54;;;;;;;5.05;1.35;;;;;;;10.53;100.00;101124.81;4900774;28;20500;-78
2022/09/18 08:15:53;;;;;;;9.98;1.40;;;;;;;10.59;100.00;101130.13;4905262;28;20218;-78
2022/09/18 08:18:40;;;;;;;9.98;1.40;;;;;;;10.62;100.00;101124.84;4939997;28;20054;-78
2022/09/18 08:21:17;;;;;;;9.68;1.83;;;;;;;10.65;100.00;101119.63;4919594;28;20031;-79
2022/09/18 08:23:49;;;;;;;9.75;1.73;;;;;;;10.69;100.00;101121.41;4948686;28;20384;-79
2022/09/18 08:26:17;;;;;;;8.88;2.15;;;;;;;10.72;100.00;101125.84;4914539;28;20416;-80
2022/09/18 08:28:51;;;;;;;5.10;1.27;;;;;;;10.74;100.00;101116.19;4916267;28;20043;-79
2022/09/18 08:31:20;;;;;;;9.98;2.00;;;;;;;10.73;100.00;101117.03;4927264;28;20156;-80
2022/09/18 08:33:52;;;;;;;5.72;1.48;;;;;;;10.73;100.00;101117.03;4960178;28;20056;-78
2022/09/18 08:36:21;;;;;;;6.72;1.83;;;;;;;10.73;100.00;101117.91;4944864;28;20719;-80
2022/09/18 08:39:13;;;;;;;6.10;1.27;;;;;;;10.71;100.00;101105.59;4992908;28;20046;-79
2022/09/18 08:42:17;;;;;;;;;;;;;;;10.70;100.00;101111.75;4949330;28;20055;-79
2022/09/18 08:44:58;;;;;;;4.68;1.35;;;;;;;10.68;100.00;101110.84;4968091;28;19923;-79
2022/09/18 08:47:37;;;;;;;7.55;1.55;;;;;;;10.65;100.00;101114.34;4930943;28;20058;-79
2022/09/18 08:50:20;;;;;;;4.85;1.42;;;;;;;10.64;100.00;101109.97;4946504;28;20801;-79
2022/09/18 08:52:55;;;;;;;5.53;1.88;;;;;;;10.63;100.00;101113.47;4971356;28;20058;-79
2022/09/18 08:55:53;;;;;;;9.60;1.50;;;;;;;10.64;100.00;101112.59;4942491;28;20042;-79
2022/09/18 08:58:56;;;;;;;5.32;1.35;;;;;;;10.68;100.00;101121.38;4892909;28;20074;-79
2022/09/18 09:01:39;;;;;;;4.72;1.25;;;;;;;10.73;100.00;101119.66;5004725;28;20272;-79
2022/09/18 09:04:27;;;;;;;5.85;1.50;;;;;;;10.79;100.00;101119.72;5003137;28;20045;-80
2022/09/18 09:07:04;;;;;;;5.50;1.45;;;;;;;10.86;100.00;101118.00;5015921;28;20036;-79
2022/09/18 09:10:27;;;;;;;6.43;1.05;;;;;;;10.92;100.00;101123.31;4943149;28;20435;-80
2022/09/18 09:13:23;;;;;;;2.75;1.20;;;;;;;10.96;100.00;101122.44;4947821;28;20060;-81
2022/09/18 09:15:58;;;;;;;6.57;1.20;;;;;;;11.02;100.00;101118.97;4934725;28;20049;-80
2022/09/18 09:18:45;;;;;;;5.97;1.70;;;;;;;11.07;100.00;101127.78;4971836;28;20372;-81
2022/09/18 09:21:22;;;;;;;6.85;1.23;;;;;;;11.09;100.00;101129.56;4997954;28;20063;-79
2022/09/18 09:24:20;;;;;;;7.30;1.40;;;;;;;11.14;100.00;101129.59;4945506;28;20276;-81
2022/09/18 09:27:42;;;;;;;8.85;1.90;;;;;;;11.17;100.00;101123.44;5016917;28;20049;-80
2022/09/18 09:30:33;;;;;;;6.85;1.63;;;;;;;11.21;100.00;101127.84;4931762;28;20397;-80
2022/09/18 09:33:34;;;;;;;9.88;2.13;;;;;;;11.28;100.00;101127.91;4994425;28;20038;-80
2022/09/18 09:36:28;;;;;;;9.38;1.90;;;;;;;11.37;100.00;101129.69;4984848;28;20053;-78
2022/09/18 09:39:16;;;;;;;9.85;2.03;;;;;;;11.45;100.00;101140.28;4949567;28;20043;-80
2022/09/18 09:41:58;;;;;;;4.72;1.50;;;;;;;11.57;100.00;101135.06;4943701;28;20070;-79
2022/09/18 09:44:53;;;;;;;4.05;1.40;;;;;;;11.68;100.00;101135.09;4931849;28;20035;-80
2022/09/18 09:47:38;;;;;;;4.55;1.10;;;;;;;11.76;100.00;101135.13;4911248;28;20349;-80
2022/09/18 09:50:07;;;;;;;4.88;1.00;;;;;;;11.84;100.00;101130.75;4983455;28;20051;-79
2022/09/18 09:52:40;;;;;;;5.70;1.70;;;;;;;11.94;100.00;101127.28;4978917;28;20102;-78
2022/09/18 09:55:28;;;;;;;8.57;1.30;;;;;;;12.08;100.00;101132.59;4976694;28;20047;-78
2022/09/18 09:58:09;;;;;;;4.75;1.52;;;;;;;12.22;100.00;101129.97;4979311;28;20043;-79
2022/09/18 10:00:47;;;;;;;6.50;1.58;;;;;;;12.33;100.00;101130.00;4950075;28;20249;-81
2022/09/18 10:03:28;;;;;;;4.97;1.23;;;;;;;12.46;100.00;101134.41;4949996;28;20034;-80
2022/09/18 10:06:15;;;;;;;11.85;1.92;;;;;;;12.59;100.00;101129.97;5021589;28;20145;-80
2022/09/18 10:08:54;;;;;;;9.07;1.60;;;;;;;12.66;100.00;101127.34;4965650;28;20566;-81
2022/09/18 10:11:23;;;;;;;4.18;1.60;;;;;;;12.75;100.00;101130.84;4962284;28;20046;-81
2022/09/18 10:14:11;;;;;;;6.20;1.50;;;;;;;12.79;100.00;101130.81;4937454;28;20047;-78
2022/09/18 10:16:45;;;;;;;11.68;1.67;;;;;;;12.83;100.00;101137.00;4959794;28;20443;-79
2022/09/18 10:19:18;;;;;;;9.02;1.38;;;;;;;12.85;100.00;101141.41;4991263;28;20051;-79
2022/09/18 10:21:49;;;;;;;5.82;1.85;;;;;;;12.90;100.00;101144.03;4935325;28;20262;-79
2022/09/18 10:24:38;;;;;;;4.43;1.40;;;;;;;12.97;100.00;101144.94;4968998;28;20047;-79
2022/09/18 10:27:12;;;;;;;8.35;2.53;;;;;;;13.04;100.00;101138.72;4962469;28;20038;-79
2022/09/18 10:29:42;;;;;;;7.22;1.30;;;;;;;13.07;100.00;101136.06;4952367;28;20263;-79
2022/09/18 10:32:37;;;;;;;3.47;1.20;;;;;;;13.10;100.00;101138.72;4950794;28;20051;-79
2022/09/18 10:35:28;;;;;;;6.22;1.55;;;;;;;13.15;100.00;101131.63;4992213;28;20044;-79
2022/09/18 10:37:58;;;;;;;5.32;1.55;;;;;;;13.20;100.00;101129.00;4978343;28;20377;-79
2022/09/18 10:40:38;;;;;;;6.32;1.20;;;;;;;13.26;100.00;101142.19;4941137;28;20050;-80
2022/09/18 10:43:17;;;;;;;7.35;1.73;;;;;;;13.29;100.00;101130.69;4944297;28;20039;-81
2022/09/18 10:45:53;;;;;;;5.72;1.60;;;;;;;13.32;100.00;101136.91;5041082;28;20054;-79
2022/09/18 10:48:35;;;;;;;6.93;1.38;;;;;;;13.35;100.00;101133.38;4935935;28;20043;-79
2022/09/18 10:51:04;;;;;;;4.57;1.23;;;;;;;13.37;100.00;101127.19;4961267;28;20046;-79
2022/09/18 10:53:42;;;;;;;2.97;1.00;;;;;;;13.37;100.00;101127.19;4984213;28;20350;-79
2022/09/18 10:56:21;;;;;;;6.20;1.25;;;;;;;13.41;100.00;101136.88;4955873;28;20402;-81
2022/09/18 10:58:52;;;;;;;4.07;0.95;;;;;;;13.44;100.00;101130.72;4951644;28;20058;-80
2022/09/18 11:01:24;;;;;;;4.55;1.10;;;;;;;13.46;100.00;101136.88;4939616;28;20051;-81
2022/09/18 11:04:05;;;;;;;4.47;1.38;;;;;;;13.51;99.54;101123.59;4894921;28;20047;-80
2022/09/18 11:06:36;;;;;;;2.63;0.98;;;;;;;13.59;100.00;101122.69;4943744;28;20035;-80
2022/09/18 11:09:34;;;;;;;5.68;1.30;;;;;;;13.74;99.97;101120.84;4925100;28;20499;-79
2022/09/18 11:12:03;;;;;;;4.00;1.08;;;;;;;13.87;100.00;101116.34;4974085;28;20101;-81
2022/09/18 11:14:42;;;;;;;6.00;1.40;;;;;;;14.02;98.93;101113.59;4928320;28;20479;-82
2022/09/18 11:17:27;;;;;;;6.43;1.10;;;;;;;14.10;96.59;101116.19;4965521;28;20396;-80
2022/09/18 11:19:59;;;;;;;6.00;1.27;;;;;;;14.12;96.77;101101.16;4914739;28;20054;-79
2022/09/18 11:23:18;;;;;;;10.50;1.80;;;;;;;14.19;96.98;101113.47;4964689;28;20038;-80
2022/09/18 11:26:13;;;;;;;8.93;1.75;;;;;;;14.19;95.00;101110.81;4958764;28;20557;-79
2022/09/18 11:29:05;;;;;;;6.90;1.48;;;;;;;14.24;96.61;101114.34;4945902;28;20039;-81
2022/09/18 11:31:41;;;;;;;7.38;1.50;;;;;;;14.26;98.39;101109.03;4954004;28;20042;-80
2022/09/18 11:34:23;;;;;;;6.35;1.70;;;;;;;14.29;97.14;101112.53;4958332;28;20042;-80
2022/09/18 11:36:59;;;;;;;7.00;1.25;;;;;;;14.26;96.62;101111.69;4946236;28;20055;-80
2022/09/18 11:39:37;;;;;;;7.13;1.60;;;;;;;14.15;96.35;101111.75;4967094;28;20039;-80
2022/09/18 11:42:15;;;;;;;13.05;1.95;;;;;;;14.13;96.87;101113.53;4981808;28;20054;-81
2022/09/18 11:44:46;;;;;;;8.70;1.50;;;;;;;14.11;98.10;101113.53;5017921;28;20236;-80
2022/09/18 11:47:24;;;;;;;9.63;1.45;;;;;;;14.19;99.02;101111.69;4980714;28;20040;-79
2022/09/18 11:50:24;;;;;;;6.97;1.30;;;;;;;14.28;90.50;101105.47;5045142;28;20335;-81
2022/09/18 11:52:59;;;;;;;7.40;1.50;;;;;;;14.40;92.86;101102.72;4974356;28;20054;-80
2022/09/18 11:55:37;;;;;;;8.55;2.20;;;;;;;14.47;91.72;101113.28;4958875;28;20660;-79
2022/09/18 11:58:21;;;;;;;13.45;2.38;;;;;;;14.52;93.73;101107.03;4945210;28;20069;-79
2022/09/18 12:01:10;;;;;;;7.30;1.67;;;;;;;14.57;91.37;101099.06;4960090;28;20058;-81
2022/09/18 12:04:09;;;;;;;6.38;1.40;;;;;;;14.56;87.27;101099.94;4947410;28;20043;-79
2022/09/18 12:06:54;;;;;;;8.40;1.17;;;;;;;14.46;90.60;101095.59;4942263;28;20038;-80
2022/09/18 12:09:43;;;;;;;8.00;2.03;;;;;;;14.33;90.31;101100.09;4974786;28;20397;-79